Burns Pinion Ridge Reserve, California Weather observations

Data are for 10 minute period ending at time listed.
 Day   Time   Solar   Ave.   Ave.  Ave.  Vector  Max.   Baro.   Total    
  of    of     Rad.   Air    Rel.  Wind   Wind   Wind  Press.  Precip.   
Year   Day            Temp.  Hum.  Speed  Dir.   Gust                    
2015   (PST)  Kw/m2    F      %     mph   deg.    mph    mb.     in.     
-------------------------------------------------------------------------
 185   19:10   0.00   83.1    25    8.2   209    16.8   873.4    0.00 
 185   19:20   0.00   82.7    25    8.4   211    17.8   873.4    0.00 
 185   19:30   0.00   82.2    26    5.0   200    13.7   873.5    0.00 
 185   19:40   0.00   82.1    25    8.6   206    18.0   873.7    0.00 
 185   19:50   0.00   82.0    25    7.3   217    14.2   873.8    0.00 
 185   20:00   0.00   81.6    25    9.3   215    18.8   873.9    0.00 
 185   20:10   0.00   81.3    25    7.9   217    15.5   872.1    0.00 
 185   20:20   0.00   80.9    26    9.6   211    18.7   874.1    0.00 
 185   20:30   0.00   80.5    27   10.8   218    19.4   874.4    0.00 
 185   20:40   0.00   79.9    27   10.3   221    19.5   874.5    0.00 
 185   20:50   0.00   79.7    27   12.5   220    19.9   874.6    0.00 
 185   21:00   0.00   79.0    28   12.1   214    20.8   874.8    0.00 
 185   21:10   0.00   78.3    29   10.8   216    18.3   873.0    0.00 
 185   21:20   0.00   78.1    29    8.9   210    18.6   875.0    0.00 
 185   21:30   0.00   77.7    30    7.7   210    14.8   875.1    0.00 
 185   21:40   0.00   77.3    31    7.3   200    16.7   875.2    0.00 
 185   21:50   0.00   76.9    32    7.2   195    14.5   875.2    0.00 
 185   22:00   0.00   76.6    32    6.3   200    15.4   875.2    0.00 
 185   22:10   0.00   76.3    33    5.4   207    11.9   875.3    0.00 
 185   22:20   0.00   76.0    33    3.9   194    12.9   875.4    0.00 
 185   22:30   0.00   76.0    33    5.0   193    11.2   875.4    0.00 
 185   22:40   0.00   76.0    34    6.5   186    15.0   875.4    0.00 
 185   22:50   0.00   75.7    34    3.9   181     8.1   875.4    0.00 
 185   23:00   0.00   75.7    34    5.2   181    11.2   875.4    0.00 
 185   23:10   0.00   75.6    35    5.6   180    10.0   875.4    0.00 
 185   23:20   0.00   75.8    35    5.9   185    11.6   875.4    0.00 
 185   23:30   0.00   75.8    34    6.2   203    10.9   875.4    0.00 
 185   23:40   0.00   76.1    34    8.2   212    12.9   875.4    0.00 
 185   23:50   0.00   76.0    33    9.8   205    14.8   875.4    0.00 
 186    0:00   0.00   76.2    32    9.1   216    17.2   875.4    0.00 
 186    0:10   0.00   76.2    32    6.2   238    11.8   875.4    0.00 
 186    0:20   0.00   76.2    32    5.8   255     9.6   875.4    0.00 
 186    0:30   0.00   75.9    33    5.6   259     9.0   875.6    0.00 
 186    0:40   0.00   75.9    33    5.5   246     9.1   875.4    0.00 
 186    0:50   0.00   76.0    33    5.8   240     9.3   875.4    0.00 
 186    1:00   0.00   75.9    33    4.8   242     8.5   875.4    0.00 
 186    1:10   0.00   75.6    33    4.4   243     8.8   875.4    0.00 
 186    1:20   0.00   75.4    34    4.3   227     7.8   875.3    0.00 
 186    1:30   0.00   74.9    34    3.8   221     6.1   875.2    0.00 
 186    1:40   0.00   74.6    34    5.1   209     7.4   875.2    0.00 
 186    1:50   0.00   74.7    33    5.3   212     8.7   875.2    0.00 
 186    2:00   0.00   75.3    31    6.2   205     9.3   875.1    0.00 
 186    2:10   0.00   74.9    30    5.9   207     8.5   875.1    0.00 
 186    2:20   0.00   74.7    29    4.2   228     7.2   875.1    0.00 
 186    2:30   0.00   74.5    27    4.7   223     8.0   875.1    0.00 
 186    2:40   0.00   74.1    27    3.7   208     5.7   875.0    0.00 
 186    2:50   0.00   73.7    27    3.2   212     6.3   875.1    0.00 
 186    3:00   0.00   73.0    28    4.0   215     5.4   875.0    0.00 
 186    3:10   0.00   72.4    30    3.6   215     5.6   875.0    0.00 
 186    3:20   0.00   73.0    29    5.4   203     8.0   874.9    0.00 
 186    3:30   0.00   74.1    29    6.1   207     8.6   874.9    0.00 
 186    3:40   0.00   73.7    31    5.0   213     7.0   874.9    0.00 
 186    3:50   0.00   73.4    32    4.9   217     7.7   874.9    0.00 
 186    4:00   0.00   72.9    33    4.0   221     6.1   875.0    0.00 
 186    4:10   0.00   72.2    35    3.8   216     5.3   875.0    0.00 
 186    4:20   0.00   71.7    37    4.5   216     5.9   875.1    0.00 
 186    4:30   0.00   71.8    36    2.8   221     5.8   875.1    0.00 
 186    4:40   0.00   70.3    38    0.3   205     1.8   875.2    0.00 
 186    4:50   0.00   68.8    40    1.6   221     3.9   875.2    0.00 
 186    5:00   0.01   68.3    40    2.0   229     3.9   875.3    0.00 
 186    5:10   0.02   68.6    39    1.7   221     3.8   875.3    0.00 
 186    5:20   0.04   69.3    38    0.0     0     0.0   875.3    0.00 
 186    5:30   0.08   73.2    33    0.0   342     0.6   875.3    0.00 
 186    5:40   0.11   76.4    29    1.6   299     2.9   875.4    0.00 
 186    5:50   0.14   78.9    27    0.2   258     1.5   875.5    0.00 
 186    6:00   0.17   80.6    25    3.4   221     6.4   875.7    0.00 
 186    6:10   0.20   82.0    23    2.4   200     4.7   875.8    0.00 
 186    6:20   0.24   83.4    22    4.0   191     5.8   876.0    0.00 
 186    6:30   0.27   83.4    22    3.3   187     5.7   876.1    0.00 
 186    6:40   0.31   84.8    21    3.4   192     5.7   876.2    0.00 
 186    6:50   0.34   84.5    21    4.2   213     6.4   876.4    0.00 
 186    7:00   0.38   84.5    21    3.7   199     5.6   876.4    0.00 
 186    7:10   0.41   86.2    20    3.6   172     5.7   876.5    0.00 
 186    7:20   0.45   87.3    19    3.9   170     6.4   876.5    0.00 
 186    7:30   0.48   87.4    20    4.9   168     8.0   876.5    0.00 
 186    7:40   0.52   86.8    20    4.7   160     7.2   876.5    0.00 
 186    7:50   0.55   87.2    20    5.1   162     8.3   876.6    0.00 
 186    8:00   0.58   87.6    20    5.1   168     8.1   876.6    0.00 
 186    8:10   0.61   86.4    22    6.5   186    11.6   876.7    0.00 
 186    8:20   0.64   85.3    23    6.4   183    10.8   876.7    0.00 
 186    8:30   0.68   86.7    22    4.4   179    10.7   876.6    0.00 
 186    8:40   0.71   86.5    22    5.8   211     9.8   876.6    0.00 
 186    8:50   0.73   85.9    22    7.0   206    12.2   876.5    0.00 
 186    9:00   0.76   87.9    21    5.1   183    10.2   876.5    0.00 
 186    9:10   0.79   88.2    21    6.5   184    11.7   876.5    0.00 
 186    9:20   0.81   87.1    22    6.5   207    11.9   876.5    0.00 
 186    9:30   0.83   87.2    21    5.6   203    10.1   876.5    0.00 
 186    9:40   0.86   87.6    21    6.3   156    14.6   876.5    0.00 
 186    9:50   0.88   88.0    21    6.2   197    12.7   876.6    0.00 
 186   10:00   0.89   87.5    22    6.5   201    12.3   876.5    0.00 
 186   10:10   0.91   87.1    23    6.1   200    11.5   876.6    0.00 
 186   10:20   0.93   88.7    22    7.0   179    14.1   876.6    0.00 
 186   10:30   0.94   88.5    22    5.8   203    12.8   876.5    0.00 
 186   10:40   0.95   88.0    23    6.9   212    13.3   876.5    0.00 
 186   10:50   0.96   87.8    24    8.6   210    20.5   876.5    0.00 
 186   11:00   0.97   88.1    24    9.0   184    16.9   876.4    0.00 
 186   11:10   0.98   88.3    25    7.2   193    16.8   876.4    0.00 
 186   11:20   0.99   87.5    25    7.5   197    18.3   876.4    0.00 
 186   11:30   0.99   87.0    25    9.6   199    18.6   876.4    0.00 
 186   11:40   1.00   87.7    24    7.8   207    16.3   876.4    0.00 
 186   11:50   1.00   87.8    24    9.0   212    17.8   876.3    0.00 
 186   12:00   1.01   87.6    24    9.8   214    18.7   876.2    0.00 
 186   12:10   0.98   87.7    24   10.1   223    17.7   876.1    0.00 
 186   12:20   1.00   87.2    24   11.1   204    19.1   876.1    0.00 
 186   12:30   0.99   87.5    24   10.2   213    21.3   876.1    0.00 
 186   12:40   1.00   88.2    24    9.3   210    20.7   876.0    0.00 
 186   12:50   0.99   88.5    23    9.8   220    18.0   876.0    0.00 
 186   13:00   0.97   88.6    23   10.5   216    18.3   875.8    0.00 
 186   13:10   0.96   88.8    23    9.3   215    16.1   875.6    0.00 
 186   13:20   0.96   88.3    23   10.7   216    17.8   875.5    0.00 
 186   13:30   0.94   88.3    23   10.1   216    18.5   875.4    0.00 
 186   13:40   0.93   87.6    24   11.8   214    21.3   875.3    0.00 
 186   13:50   0.91   88.0    23   11.1   212    21.8   875.2    0.00 
 186   14:00   0.88   89.1    22    9.9   186    19.6   875.1    0.00 
 186   14:10   0.86   88.2    23   11.2   217    22.0   874.9    0.00 
 186   14:20   0.84   88.8    23   10.5   201    22.4   874.9    0.00 
 186   14:30   0.81   87.5    24   11.7   204    23.3   874.8    0.00 
 186   14:40   0.80   88.0    23   11.9   212    22.8   874.7    0.00 
 186   14:50   0.78   87.5    23   14.2   217    25.4   874.6    0.00 
 186   15:00   0.76   87.8    22   12.5   208    29.4   874.5    0.00 
 186   15:10   0.72   87.4    23   11.8   208    24.7   874.4    0.00 
 186   15:20   0.69   87.4    23   14.1   200    25.8   874.4    0.00 
 186   15:30   0.65   87.2    23   13.2   204    28.9   874.4    0.00 
 186   15:40   0.62   87.8    23   10.8   195    21.4   874.4    0.00 
 186   15:50   0.58   87.5    23    9.9   190    24.2   874.4    0.00 
 186   16:00   0.55   88.0    22    8.7   193    21.3   874.4    0.00 
 186   16:10   0.52   87.6    22    9.9   203    25.5   874.4    0.00 
 186   16:20   0.49   87.5    22   11.1   218    23.6   874.3    0.00 
 186   16:30   0.45   86.7    23   12.3   214    22.6   874.2    0.00 
 186   16:40   0.41   86.7    23   10.9   203    22.9   874.3    0.00 
 186   16:50   0.37   87.3    23    8.7   216    20.7   874.3    0.00 
 186   17:00   0.27   87.4    22    7.6   184    20.8   874.4    0.00 
 186   17:10   0.08   84.9    24    9.6   212    19.6   874.7    0.00 
 186   17:20   0.14   85.5    24   10.2   212    22.7   874.9    0.00 
 186   17:30   0.04   84.1    26    8.7   222    17.8   875.1    0.00 
 186   17:40   0.04   83.6    26   11.2   212    21.7   875.2    0.00 
 186   17:50   0.03   83.2    26   11.4   212    18.7   875.2    0.00 
 186   18:00   0.04   82.8    27    9.0   210    18.2   875.2    0.00 
 186   18:10   0.07   82.9    26    6.2   198    12.4   875.2    0.00 
 186   18:20   0.07   82.9    26    9.9   212    17.8   875.1    0.00 
 186   18:30   0.03   81.9    27   10.1   212    20.2   875.1    0.00 
 186   18:40   0.03   81.4    28   10.7   217    21.1   875.2    0.00 
 186   18:50   0.02   81.2    28    8.9   212    18.8   875.3    0.00 
 186   19:00   0.01   80.6    28   10.1   220    18.9   875.4    0.00 

Return to Burns Pinion Ridge Reserve graphs page.


Western Regional Climate Center,wrcc@dri.edu